地図

経路データ

SID SEASON NUMBER BASIN SUBBASIN NAME ISO_TIME NATURE LAT LON WMO_WIND WMO_PRES WMO_AGENCY TRACK_TYPE DIST2LAND LANDFALL IFLAG USA_AGENCY USA_ATCF_ID USA_LAT USA_LON USA_RECORD USA_STATUS USA_WIND USA_PRES USA_SSHS USA_R34_NE USA_R34_SE USA_R34_SW USA_R34_NW USA_R50_NE USA_R50_SE USA_R50_SW USA_R50_NW USA_R64_NE USA_R64_SE USA_R64_SW USA_R64_NW USA_POCI USA_ROCI USA_RMW USA_EYE TOKYO_LAT TOKYO_LON TOKYO_GRADE TOKYO_WIND TOKYO_PRES TOKYO_R50_DIR TOKYO_R50_LONG TOKYO_R50_SHORT TOKYO_R30_DIR TOKYO_R30_LONG TOKYO_R30_SHORT TOKYO_LAND CMA_LAT CMA_LON CMA_CAT CMA_WIND CMA_PRES HKO_LAT HKO_LON HKO_CAT HKO_WIND HKO_PRES NEWDELHI_LAT NEWDELHI_LON NEWDELHI_GRADE NEWDELHI_WIND NEWDELHI_PRES NEWDELHI_CI NEWDELHI_DP NEWDELHI_POCI REUNION_LAT REUNION_LON REUNION_TYPE REUNION_WIND REUNION_PRES REUNION_TNUM REUNION_CI REUNION_RMW REUNION_R34_NE REUNION_R34_SE REUNION_R34_SW REUNION_R34_NW REUNION_R50_NE REUNION_R50_SE REUNION_R50_SW REUNION_R50_NW REUNION_R64_NE REUNION_R64_SE REUNION_R64_SW REUNION_R64_NW BOM_LAT BOM_LON BOM_TYPE BOM_WIND BOM_PRES BOM_TNUM BOM_CI BOM_RMW BOM_R34_NE BOM_R34_SE BOM_R34_SW BOM_R34_NW BOM_R50_NE BOM_R50_SE BOM_R50_SW BOM_R50_NW BOM_R64_NE BOM_R64_SE BOM_R64_SW BOM_R64_NW BOM_ROCI BOM_POCI BOM_EYE BOM_POS_METHOD BOM_PRES_METHOD NADI_LAT NADI_LON NADI_CAT NADI_WIND NADI_PRES WELLINGTON_LAT WELLINGTON_LON WELLINGTON_WIND WELLINGTON_PRES DS824_LAT DS824_LON DS824_STAGE DS824_WIND DS824_PRES TD9636_LAT TD9636_LON TD9636_STAGE TD9636_WIND TD9636_PRES TD9635_LAT TD9635_LON TD9635_WIND TD9635_PRES TD9635_ROCI NEUMANN_LAT NEUMANN_LON NEUMANN_CLASS NEUMANN_WIND NEUMANN_PRES MLC_LAT MLC_LON MLC_CLASS MLC_WIND MLC_PRES USA_GUST BOM_GUST BOM_GUST_PER REUNION_GUST REUNION_GUST_PER USA_SEAHGT USA_SEARAD_NE USA_SEARAD_SE USA_SEARAD_SW USA_SEARAD_NW STORM_SPEED STORM_DIR
1998278N14314 1998 77 NA NA LISA 1998-10-05 00:00:00 TS 13.9000 -46.4000 30 1008 hurdat_atl main 1188 1178 O_____________ hurdat_atl AL121998 13.9000 -46.4000 TD 30 1008 -1 7 291
1998278N14314 1998 77 NA NA LISA 1998-10-05 03:00:00 TS 14.0276 -46.7499 main 1178 1170 P_____________ AL121998 14.0276 -46.7499 TD 32 1007 -1 7 294
1998278N14314 1998 77 NA NA LISA 1998-10-05 06:00:00 TS 14.2000 -47.1000 35 1007 hurdat_atl main 1174 1168 O_____________ hurdat_atl AL121998 14.2000 -47.1000 TS 35 1007 0 8 302
1998278N14314 1998 77 NA NA LISA 1998-10-05 09:00:00 TS 14.4550 -47.4501 main 1181 1181 P_____________ AL121998 14.4550 -47.4501 TS 35 1007 0 9 311
1998278N14314 1998 77 NA NA LISA 1998-10-05 12:00:00 TS 14.8000 -47.8000 35 1007 hurdat_atl main 1196 1196 O_____________ hurdat_atl AL121998 14.8000 -47.8000 TS 35 1007 0 10 319
1998278N14314 1998 77 NA NA LISA 1998-10-05 15:00:00 TS 15.2350 -48.1500 main 1217 1217 P_____________ AL121998 15.2350 -48.1500 TS 37 1006 0 11 323
1998278N14314 1998 77 NA NA LISA 1998-10-05 18:00:00 TS 15.7000 -48.5000 40 1006 hurdat_atl main 1255 1255 O_____________ hurdat_atl AL121998 15.7000 -48.5000 TS 40 1006 0 11 321
1998278N14314 1998 77 NA NA LISA 1998-10-05 21:00:00 TS 16.1226 -48.8949 main 1280 1280 P_____________ AL121998 16.1226 -48.8949 TS 40 1006 0 10 320
1998278N14314 1998 77 NA NA LISA 1998-10-06 00:00:00 TS 16.5000 -49.2000 40 1006 hurdat_atl main 1306 1306 O_____________ hurdat_atl AL121998 16.5000 -49.2000 TS 40 1006 0 8 329
1998278N14314 1998 77 NA NA LISA 1998-10-06 03:00:00 TS 16.8224 -49.3326 main 1332 1332 P_____________ AL121998 16.8224 -49.3326 TS 42 1005 0 6 351
1998278N14314 1998 77 NA NA LISA 1998-10-06 06:00:00 TS 17.1000 -49.3000 45 1005 hurdat_atl main 1362 1362 O_____________ hurdat_atl AL121998 17.1000 -49.3000 TS 45 1005 0 6 19
1998278N14314 1998 77 NA NA LISA 1998-10-06 09:00:00 TS 17.3500 -49.1376 main 1402 1402 P_____________ AL121998 17.3500 -49.1376 TS 45 1005 0 6 37
1998278N14314 1998 77 NA NA LISA 1998-10-06 12:00:00 TS 17.6000 -48.9000 45 1005 hurdat_atl main 1431 1431 O_____________ hurdat_atl AL121998 17.6000 -48.9000 TS 45 1005 0 7 37
1998278N14314 1998 77 NA NA LISA 1998-10-06 15:00:00 TS 17.8850 -48.7074 main 1470 1470 P_____________ AL121998 17.8850 -48.7074 TS 45 1005 0 7 32
1998278N14314 1998 77 NA NA LISA 1998-10-06 18:00:00 TS 18.2000 -48.5000 45 1005 hurdat_atl main 1509 1509 O_____________ hurdat_atl AL121998 18.2000 -48.5000 TS 45 1005 0 8 33
1998278N14314 1998 77 NA NA LISA 1998-10-06 21:00:00 TS 18.5425 -48.2575 main 1549 1549 P_____________ AL121998 18.5425 -48.2575 TS 47 1004 0 8 34
1998278N14314 1998 77 NA NA LISA 1998-10-07 00:00:00 TS 18.9000 -48.0000 50 1004 hurdat_atl main 1603 1603 O_____________ hurdat_atl AL121998 18.9000 -48.0000 TS 50 1004 0 8 33
1998278N14314 1998 77 NA NA LISA 1998-10-07 03:00:00 TS 19.2423 -47.7796 main 1642 1642 P_____________ AL121998 19.2423 -47.7796 TS 50 1003 0 8 34
1998278N14314 1998 77 NA NA LISA 1998-10-07 06:00:00 TS 19.6000 -47.5000 50 1003 hurdat_atl main 1696 1696 O_____________ hurdat_atl AL121998 19.6000 -47.5000 TS 50 1003 0 10 41
1998278N14314 1998 77 NA NA LISA 1998-10-07 09:00:00 TS 19.9698 -47.1095 main 1755 1755 P_____________ AL121998 19.9698 -47.1095 TS 50 1002 0 12 47
1998278N14314 1998 77 NA NA LISA 1998-10-07 12:00:00 TS 20.4000 -46.6000 50 1002 hurdat_atl main 1818 1818 O_____________ hurdat_atl AL121998 20.4000 -46.6000 TS 50 1002 0 14 48
1998278N14314 1998 77 NA NA LISA 1998-10-07 15:00:00 TS 20.9050 -45.9871 main 1894 1894 P_____________ AL121998 20.9050 -45.9871 TS 50 1001 0 16 48
1998278N14314 1998 77 NA NA LISA 1998-10-07 18:00:00 TS 21.5000 -45.3000 50 1001 hurdat_atl main 1985 1985 O_____________ hurdat_atl AL121998 21.5000 -45.3000 TS 50 1001 0 18 45
1998278N14314 1998 77 NA NA LISA 1998-10-07 21:00:00 TS 22.1544 -44.6363 main 2087 2087 P_____________ AL121998 22.1544 -44.6363 TS 52 1000 0 19 43
1998278N14314 1998 77 NA NA LISA 1998-10-08 00:00:00 TS 22.9000 -43.9000 55 1000 hurdat_atl main 2189 2189 O_____________ hurdat_atl AL121998 22.9000 -43.9000 TS 55 1000 0 21 44
1998278N14314 1998 77 NA NA LISA 1998-10-08 03:00:00 TS 23.6823 -43.0433 main 2311 2311 P_____________ AL121998 23.6823 -43.0433 TS 55 999 0 24 44
1998278N14314 1998 77 NA NA LISA 1998-10-08 06:00:00 TS 24.6000 -42.1000 55 999 hurdat_atl main 2443 2420 O_____________ hurdat_atl AL121998 24.6000 -42.1000 TS 55 999 0 27 42
1998278N14314 1998 77 NA NA LISA 1998-10-08 09:00:00 TS 25.6754 -41.0774 main 2418 2306 P_____________ AL121998 25.6754 -41.0774 TS 55 999 0 29 38
1998278N14314 1998 77 NA NA LISA 1998-10-08 12:00:00 TS 26.9000 -40.1000 55 999 hurdat_atl main 2295 2199 O_____________ hurdat_atl AL121998 26.9000 -40.1000 TS 55 999 0 30 33
1998278N14314 1998 77 NA NA LISA 1998-10-08 15:00:00 TS 28.1747 -39.2590 main 2198 2120 P_____________ AL121998 28.1747 -39.2590 TS 57 999 0 30 26
1998278N14314 1998 77 NA NA LISA 1998-10-08 18:00:00 TS 29.6000 -38.6000 60 999 hurdat_atl main 2120 2073 O_____________ hurdat_atl AL121998 29.6000 -38.6000 TS 60 999 0 32 19
1998278N14314 1998 77 NA NA LISA 1998-10-08 21:00:00 TS 31.1599 -38.0806 main 2075 2013 P_____________ AL121998 31.1599 -38.0806 TS 60 999 0 34 12
1998278N14314 1998 77 NA NA LISA 1998-10-09 00:00:00 TS 32.9000 -37.8000 60 999 hurdat_atl main 2004 1860 O_____________ hurdat_atl AL121998 32.9000 -37.8000 TS 60 999 0 36 5
1998278N14314 1998 77 NA NA LISA 1998-10-09 03:00:00 TS 34.7376 -37.7311 main 1851 1673 P_____________ AL121998 34.7376 -37.7311 TS 60 998 0 39 359
1998278N14314 1998 77 NA NA LISA 1998-10-09 06:00:00 TS 36.8000 -37.9000 60 997 hurdat_atl main 1665 1484 O_____________ hurdat_atl AL121998 36.8000 -37.9000 TS 60 997 0 44 354
1998278N14314 1998 77 NA NA LISA 1998-10-09 09:00:00 TS 39.0813 -38.2591 main 1463 1277 P_____________ AL121998 39.0813 -38.2591 TS 62 996 0 48 353
1998278N14314 1998 77 NA NA LISA 1998-10-09 12:00:00 TS 41.6000 -38.7000 65 995 hurdat_atl main 1271 1073 O_____________ hurdat_atl AL121998 41.6000 -38.7000 HU 65 995 1 53 350
1998278N14314 1998 77 NA NA LISA 1998-10-09 15:00:00 TS 44.3202 -39.5259 main 1068 991 P_____________ AL121998 44.3202 -39.5259 HU 65 996 1 55 356
1998278N14314 1998 77 NA NA LISA 1998-10-09 18:00:00 TS 47.1000 -39.3000 65 997 hurdat_atl main 998 998 O_____________ hurdat_atl AL121998 47.1000 -39.3000 HU 65 997 1 58 20
1998278N14314 1998 77 NA NA LISA 1998-10-09 21:00:00 TS 49.7221 -36.5895 main 1189 1115 P_____________ AL121998 49.7221 -36.5895 HU 62 998 0 69 43
1998278N14314 1998 77 NA NA LISA 1998-10-10 00:00:00 ET 52.1000 -32.0000 60 999 hurdat_atl main 1116 O_____________ hurdat_atl AL121998 52.1000 -32.0000 EX 60 999 -4 74 50

IBTrACS Databaseについて

本データベースは、米国NOAAが公開する1842年以降の世界の熱帯低気圧のベストトラックデータアーカイブInternational Best Track Archive for Climate Stewardship (IBTrACS)を、ウェブで閲覧しやすい形式に変換したものです。

最終更新日:2021-12-03